createdAt,value
2022-08-17T00:00:43.147Z,39.35
2022-08-17T00:03:17.332Z,38.83
2022-08-17T00:05:50.369Z,41.13
2022-08-17T00:08:23.521Z,39.60
2022-08-17T00:10:54.990Z,40.40
2022-08-17T00:13:26.219Z,38.80
2022-08-17T00:16:00.239Z,40.05
2022-08-17T00:19:01.222Z,40.55
2022-08-17T00:21:25.145Z,38.22
2022-08-17T00:23:55.625Z,40.10
2022-08-17T00:26:45.238Z,38.55
2022-08-17T00:29:19.985Z,37.88
2022-08-17T00:31:50.290Z,38.40
2022-08-17T00:34:18.968Z,37.42
2022-08-17T00:36:48.820Z,38.22
2022-08-17T00:39:18.701Z,39.22
2022-08-17T00:41:48.604Z,37.97
2022-08-17T00:44:36.881Z,38.97
2022-08-17T00:47:05.252Z,37.97
2022-08-17T00:49:33.378Z,37.58
2022-08-17T00:52:28.540Z,37.75
2022-08-17T00:55:03.393Z,37.45
2022-08-17T00:57:36.446Z,37.65
2022-08-17T01:00:29.071Z,37.58
2022-08-17T01:03:06.753Z,38.45
2022-08-17T01:05:38.780Z,40.83
2022-08-17T01:08:15.314Z,39.50
2022-08-17T01:10:58.691Z,40.58
2022-08-17T01:13:40.792Z,39.88
2022-08-17T01:16:16.999Z,38.72
2022-08-17T01:18:48.072Z,36.42
2022-08-17T01:21:24.934Z,39.00
2022-08-17T01:23:54.366Z,39.03
2022-08-17T01:26:24.046Z,40.90
2022-08-17T01:28:54.652Z,41.17
2022-08-17T01:31:28.292Z,41.58
2022-08-17T01:34:02.589Z,39.78
2022-08-17T01:36:31.411Z,25.55
2022-08-17T01:39:05.739Z,23.08
2022-08-17T01:44:42.768Z,25.25
2022-08-17T01:47:11.041Z,24.42
2022-08-17T01:49:42.628Z,24.08
2022-08-17T01:52:12.656Z,24.55
2022-08-17T01:54:47.566Z,27.50
2022-08-17T01:57:16.219Z,25.88
2022-08-17T01:59:49.954Z,26.15
2022-08-17T02:02:30.302Z,26.15
2022-08-17T02:05:05.846Z,27.35
2022-08-17T02:07:47.972Z,26.33
2022-08-17T02:10:33.847Z,26.60
2022-08-17T02:13:04.036Z,27.90
2022-08-17T02:15:33.571Z,28.35
2022-08-17T02:18:19.888Z,26.55
2022-08-17T02:20:52.514Z,27.05
2022-08-17T02:23:31.562Z,26.15
2022-08-17T02:26:06.510Z,24.23
2022-08-17T02:28:36.191Z,23.27
2022-08-17T02:31:15.315Z,24.05
2022-08-17T02:34:03.338Z,21.27
2022-08-17T02:36:52.506Z,20.40
2022-08-17T02:39:24.877Z,20.02
2022-08-17T02:42:02.585Z,22.23
2022-08-17T02:44:39.306Z,21.92
2022-08-17T02:47:11.023Z,20.58
2022-08-17T02:49:54.059Z,21.17
2022-08-17T02:52:43.388Z,18.42
2022-08-17T02:55:14.701Z,17.80
2022-08-17T02:58:07.641Z,16.88
2022-08-17T03:00:40.993Z,17.33
2022-08-17T03:03:15.118Z,16.27
2022-08-17T03:05:44.272Z,15.80
2022-08-17T03:08:19.459Z,15.48
2022-08-17T03:11:12.169Z,14.30
2022-08-17T03:13:59.814Z,14.90
2022-08-17T03:16:29.382Z,13.82
2022-08-17T03:19:01.121Z,12.88
2022-08-17T03:21:30.779Z,12.52
2022-08-17T03:23:59.158Z,11.23
2022-08-17T03:26:54.869Z,11.63
2022-08-17T03:29:45.956Z,11.70
2022-08-17T03:32:18.826Z,11.48
2022-08-17T03:35:08.898Z,10.50
2022-08-17T03:37:37.559Z,10.15
2022-08-17T03:40:08.363Z,9.35
2022-08-17T03:42:39.741Z,9.02
2022-08-17T03:45:18.065Z,9.60
2022-08-17T03:48:04.983Z,9.20
2022-08-17T03:50:51.180Z,9.07
2022-08-17T03:57:01.439Z,8.45
2022-08-17T03:59:53.965Z,7.35
2022-08-17T04:02:27.147Z,7.28
2022-08-17T04:07:42.241Z,7.50
2022-08-17T04:10:13.543Z,7.75
2022-08-17T04:12:51.841Z,7.38
2022-08-17T04:15:41.258Z,8.20
2022-08-17T04:21:18.134Z,8.13
2022-08-17T04:23:47.170Z,7.95
2022-08-17T04:26:52.877Z,8.65
2022-08-17T04:29:07.717Z,7.88
2022-08-17T04:31:58.055Z,7.78
2022-08-17T04:34:37.594Z,8.45
2022-08-17T04:37:28.197Z,8.68
2022-08-17T04:40:11.605Z,9.10
2022-08-17T04:42:45.011Z,9.02
2022-08-17T04:45:13.112Z,9.85
2022-08-17T04:47:42.384Z,9.93
2022-08-17T04:50:16.235Z,10.57
2022-08-17T04:52:47.792Z,11.30
2022-08-17T04:55:17.174Z,12.13
2022-08-17T04:57:45.357Z,12.35
2022-08-17T05:00:15.800Z,12.45
2022-08-17T05:02:49.763Z,14.43
2022-08-17T05:05:22.144Z,12.90
2022-08-17T05:07:56.229Z,13.93
2022-08-17T05:10:24.569Z,14.20
2022-08-17T05:12:59.263Z,14.20
2022-08-17T05:15:33.172Z,15.73
2022-08-17T05:18:04.320Z,16.38
2022-08-17T05:20:35.521Z,16.42
2022-08-17T05:23:07.087Z,16.85
2022-08-17T05:25:37.584Z,17.95
2022-08-17T05:28:06.448Z,17.45
2022-08-17T05:30:35.075Z,16.52
2022-08-17T05:33:07.141Z,17.58
2022-08-17T05:35:38.651Z,17.35
2022-08-17T05:38:08.081Z,15.70
2022-08-17T05:40:36.459Z,14.65
2022-08-17T05:43:10.138Z,14.38
2022-08-17T05:45:54.533Z,14.75
2022-08-17T05:48:35.813Z,14.23
2022-08-17T05:51:33.434Z,13.65
2022-08-17T05:54:13.578Z,14.73
2022-08-17T05:57:01.271Z,14.75
2022-08-17T05:59:37.381Z,14.35
2022-08-17T06:02:16.026Z,14.82
2022-08-17T06:05:01.795Z,14.45
2022-08-17T06:07:37.870Z,14.52
2022-08-17T06:10:15.045Z,16.40
2022-08-17T06:12:53.714Z,15.63
2022-08-17T06:15:32.202Z,15.65
2022-08-17T06:18:03.052Z,15.38
2022-08-17T06:20:36.724Z,15.27
2022-08-17T06:23:10.533Z,15.68
2022-08-17T06:25:43.612Z,16.17
2022-08-17T06:28:22.346Z,16.85
2022-08-17T06:31:00.706Z,16.08
2022-08-17T06:33:34.255Z,15.00
2022-08-17T06:36:11.383Z,15.30
2022-08-17T06:38:53.245Z,15.30
2022-08-17T06:41:26.835Z,16.05
2022-08-17T06:44:07.464Z,15.40
2022-08-17T06:46:39.517Z,15.50
2022-08-17T06:49:16.982Z,14.98
2022-08-17T06:51:50.579Z,14.73
2022-08-17T06:54:27.191Z,14.00
2022-08-17T06:57:01.630Z,13.90
2022-08-17T06:59:55.515Z,13.90
2022-08-17T07:02:52.317Z,13.48
2022-08-17T07:05:23.413Z,13.38
2022-08-17T07:08:04.045Z,12.57
2022-08-17T07:10:46.596Z,13.40
2022-08-17T07:13:38.555Z,12.68
2022-08-17T07:16:15.102Z,12.45
2022-08-17T07:18:43.875Z,12.85
2022-08-17T07:21:26.869Z,13.27
2022-08-17T07:24:11.354Z,13.65
2022-08-17T07:27:54.236Z,13.13
2022-08-17T07:30:37.159Z,12.98
2022-08-17T07:42:03.447Z,14.45
2022-08-17T08:12:37.708Z,16.45
2022-08-17T08:15:15.461Z,17.30
2022-08-17T09:02:52.235Z,13.55
2022-08-17T09:05:33.267Z,11.02
2022-08-17T09:08:10.618Z,9.52
2022-08-17T09:10:57.049Z,12.85
2022-08-17T09:13:32.088Z,13.68
2022-08-17T09:16:06.029Z,11.98
2022-08-17T09:19:02.448Z,10.52
2022-08-17T09:21:33.637Z,11.77
2022-08-17T09:24:07.461Z,12.82
2022-08-17T09:26:41.021Z,13.65
2022-08-17T09:29:15.484Z,15.70
2022-08-17T09:31:53.419Z,15.70
2022-08-17T09:34:34.461Z,17.00
2022-08-17T09:37:17.489Z,17.33
2022-08-17T09:39:54.831Z,17.33
2022-08-17T09:42:29.994Z,14.70
2022-08-17T09:45:22.995Z,14.32
2022-08-17T09:47:58.283Z,14.00
2022-08-17T09:51:03.368Z,14.25
2022-08-17T09:53:24.990Z,12.32
2022-08-17T09:56:08.303Z,12.27
2022-08-17T09:58:48.307Z,12.63
2022-08-17T10:01:25.587Z,10.88
2022-08-17T10:04:07.323Z,9.40
2022-08-17T10:06:53.302Z,8.40
2022-08-17T10:09:39.477Z,7.85
2022-08-17T10:12:20.387Z,7.47
2022-08-17T10:15:09.536Z,7.28
2022-08-17T10:17:44.867Z,6.72
2022-08-17T10:20:18.314Z,6.97
2022-08-17T10:23:08.872Z,6.68
2022-08-17T10:26:08.525Z,6.90
2022-08-17T10:28:46.321Z,6.63
2022-08-17T10:31:34.605Z,6.53
2022-08-17T10:34:38.831Z,6.63
2022-08-17T10:37:23.668Z,6.97
2022-08-17T10:40:02.570Z,6.10
2022-08-17T10:42:36.210Z,6.75
2022-08-17T10:45:08.385Z,8.15
2022-08-17T10:48:04.833Z,8.60
2022-08-17T10:50:50.334Z,8.82
2022-08-17T10:53:56.999Z,9.65
2022-08-17T10:56:41.096Z,10.60
2022-08-17T10:59:10.942Z,10.55
2022-08-17T11:02:13.137Z,11.10
2022-08-17T11:04:54.615Z,11.43
2022-08-17T11:07:39.800Z,12.38
2022-08-17T11:10:42.138Z,11.63
2022-08-17T11:13:23.296Z,11.85
2022-08-17T11:16:07.785Z,12.85
2022-08-17T11:18:54.672Z,12.63
2022-08-17T11:22:34.436Z,13.00
2022-08-17T11:25:13.646Z,13.57
2022-08-17T11:27:42.338Z,13.00
2022-08-17T11:30:14.868Z,13.68
2022-08-17T11:32:52.932Z,14.10
2022-08-17T11:35:36.195Z,14.23
2022-08-17T11:38:17.006Z,13.95
2022-08-17T11:41:04.818Z,12.90
2022-08-17T11:43:57.306Z,13.18
2022-08-17T11:46:57.877Z,12.95
2022-08-17T11:50:11.176Z,13.18
2022-08-17T11:52:44.465Z,12.80
2022-08-17T11:55:53.366Z,13.85
2022-08-17T11:58:37.890Z,13.95
2022-08-17T12:01:07.593Z,15.27
2022-08-17T12:03:55.280Z,16.38
2022-08-17T12:06:34.495Z,16.95
2022-08-17T12:09:10.269Z,16.40
2022-08-17T12:12:10.976Z,16.95
2022-08-17T12:15:08.332Z,17.48
2022-08-17T12:17:39.131Z,17.67
2022-08-17T12:20:15.602Z,17.13
2022-08-17T12:22:53.868Z,18.58
2022-08-17T12:25:27.137Z,19.05
2022-08-17T12:28:06.014Z,21.63
2022-08-17T12:30:36.505Z,20.65
2022-08-17T12:33:04.902Z,21.17
2022-08-17T12:35:36.083Z,21.77
2022-08-17T12:38:26.823Z,20.45
2022-08-17T12:40:58.269Z,21.77
2022-08-17T12:43:30.443Z,21.88
2022-08-17T12:46:13.363Z,21.98
2022-08-17T12:48:59.637Z,20.70
2022-08-17T12:51:29.467Z,20.90
2022-08-17T12:53:58.807Z,19.90
2022-08-17T12:56:26.876Z,19.30
2022-08-17T12:58:56.730Z,20.08
2022-08-17T13:01:26.071Z,20.33
2022-08-17T13:03:59.869Z,20.08
2022-08-17T13:06:31.472Z,20.60
2022-08-17T13:09:10.387Z,18.35
2022-08-17T13:11:47.978Z,20.48
2022-08-17T13:14:18.397Z,18.38
2022-08-17T13:16:52.324Z,18.55
2022-08-17T13:19:40.185Z,16.88
2022-08-17T13:22:12.821Z,16.75
2022-08-17T13:24:54.436Z,17.40
2022-08-17T13:27:25.648Z,17.98
2022-08-17T13:29:57.342Z,16.83
2022-08-17T13:32:37.084Z,17.92
2022-08-17T13:35:38.985Z,17.42
2022-08-17T13:38:10.208Z,14.57
2022-08-17T13:40:44.020Z,14.38
2022-08-17T13:43:13.070Z,14.10
2022-08-17T13:45:52.387Z,14.48
2022-08-17T13:48:27.285Z,15.20
2022-08-17T13:51:14.590Z,15.32
2022-08-17T13:54:01.439Z,17.23
2022-08-17T13:56:40.396Z,17.45
2022-08-17T13:59:11.438Z,19.05
2022-08-17T14:01:41.734Z,17.15
2022-08-17T14:04:12.170Z,18.60
2022-08-17T14:06:52.794Z,17.88
2022-08-17T14:09:24.110Z,17.80
2022-08-17T14:11:55.112Z,20.60
2022-08-17T14:14:24.438Z,17.23
2022-08-17T14:16:53.018Z,18.75
2022-08-17T14:19:22.891Z,18.67
2022-08-17T14:21:58.892Z,20.02
2022-08-17T14:24:29.260Z,20.35
2022-08-17T14:26:59.917Z,18.85
2022-08-17T14:29:29.668Z,18.52
2022-08-17T14:31:59.361Z,18.52
2022-08-17T14:34:27.419Z,17.27
2022-08-17T14:36:56.953Z,17.92
2022-08-17T14:39:25.238Z,18.90
2022-08-17T14:41:53.406Z,19.35
2022-08-17T14:44:22.711Z,19.00
2022-08-17T14:46:51.136Z,18.88
2022-08-17T14:49:19.748Z,19.00
2022-08-17T14:51:48.659Z,18.98
2022-08-17T14:54:32.599Z,18.75
2022-08-17T14:57:25.128Z,17.55
2022-08-17T14:59:55.237Z,17.70
2022-08-17T15:02:29.847Z,18.00
2022-08-17T15:05:02.488Z,18.05
2022-08-17T15:07:31.372Z,18.67
2022-08-17T15:10:01.384Z,17.50
2022-08-17T15:12:34.245Z,18.73
2022-08-17T15:15:05.620Z,18.58
2022-08-17T15:17:45.098Z,18.70
2022-08-17T15:20:17.032Z,18.73
2022-08-17T15:22:46.214Z,18.35
2022-08-17T15:25:15.186Z,19.30
2022-08-17T15:27:44.026Z,19.85
2022-08-17T15:30:14.042Z,20.23
2022-08-17T15:32:46.921Z,18.92
2022-08-17T15:35:28.341Z,19.35
2022-08-17T15:37:58.144Z,18.98
2022-08-17T15:40:26.218Z,16.55
2022-08-17T15:42:54.197Z,14.88
2022-08-17T15:45:27.034Z,12.80
2022-08-17T15:47:55.213Z,12.48
2022-08-17T15:50:23.189Z,12.30
2022-08-17T15:52:58.017Z,11.70
2022-08-17T15:55:27.542Z,11.32
2022-08-17T15:57:55.816Z,11.40
2022-08-17T16:00:28.506Z,11.65
2022-08-17T16:03:45.811Z,11.80
2022-08-17T16:05:46.339Z,12.07
2022-08-17T16:08:20.146Z,12.32
2022-08-17T16:10:49.342Z,12.55
2022-08-17T16:13:18.291Z,12.13
2022-08-17T16:15:57.264Z,10.98
2022-08-17T16:18:31.068Z,11.38
2022-08-17T16:21:19.688Z,10.77
2022-08-17T16:23:48.015Z,10.90
2022-08-17T16:26:16.177Z,11.65
2022-08-17T16:28:44.139Z,11.10
2022-08-17T16:31:14.386Z,11.15
2022-08-17T16:33:43.099Z,11.50
2022-08-17T16:36:31.127Z,11.23
2022-08-17T16:38:59.404Z,11.35
2022-08-17T16:41:45.502Z,11.93
2022-08-17T16:44:15.456Z,11.20
2022-08-17T16:46:46.199Z,10.93
2022-08-17T16:49:36.119Z,10.85
2022-08-17T16:52:03.947Z,11.02
2022-08-17T16:54:32.584Z,10.20
2022-08-17T16:57:00.766Z,10.27
2022-08-17T16:59:30.561Z,10.05
2022-08-17T17:02:05.025Z,9.98
2022-08-17T17:04:37.854Z,10.38
2022-08-17T17:07:15.910Z,9.95
2022-08-17T17:09:46.731Z,9.73
2022-08-17T17:12:19.874Z,9.82
2022-08-17T17:15:09.539Z,10.25
2022-08-17T17:17:40.250Z,9.90
2022-08-17T17:20:12.539Z,10.77
2022-08-17T17:22:48.154Z,10.10
2022-08-17T17:25:24.227Z,8.93
2022-08-17T17:28:01.894Z,9.20
2022-08-17T17:30:37.152Z,8.65
2022-08-17T17:33:10.441Z,9.43
2022-08-17T17:35:47.812Z,9.18
2022-08-17T17:38:22.171Z,9.38
2022-08-17T17:40:54.554Z,9.60
2022-08-17T17:43:40.223Z,9.57
2022-08-17T17:46:27.797Z,9.65
2022-08-17T17:48:58.454Z,10.35
2022-08-17T17:52:09.201Z,11.07
2022-08-17T17:54:34.870Z,12.77
2022-08-17T17:57:11.097Z,13.65
2022-08-17T17:59:50.993Z,12.30
2022-08-17T18:02:51.314Z,12.32
2022-08-17T18:05:44.397Z,13.05
2022-08-17T18:08:32.298Z,12.38
2022-08-17T18:11:11.369Z,10.93
2022-08-17T18:13:56.387Z,10.00
2022-08-17T18:16:24.442Z,9.32
2022-08-17T18:18:54.251Z,10.65
2022-08-17T18:21:27.983Z,9.75
2022-08-17T18:23:58.052Z,8.15
2022-08-17T18:26:50.979Z,8.70
2022-08-17T18:29:31.467Z,8.38
2022-08-17T18:32:38.019Z,7.50
2022-08-17T18:35:35.054Z,7.25
2022-08-17T18:38:23.460Z,6.82
2022-08-17T18:41:03.874Z,6.57
2022-08-17T18:43:44.064Z,6.60
2022-08-17T18:46:29.679Z,5.95
2022-08-17T18:49:02.200Z,6.38
2022-08-17T18:51:41.016Z,5.97
2022-08-17T18:54:21.409Z,5.70
2022-08-17T18:57:02.101Z,5.78
2022-08-17T18:59:40.873Z,6.00
2022-08-17T19:02:44.804Z,6.20
2022-08-17T19:05:28.941Z,6.25
2022-08-17T19:08:18.408Z,6.35
2022-08-17T19:10:53.311Z,6.20
2022-08-17T19:13:29.086Z,5.72
2022-08-17T19:16:14.671Z,6.00
2022-08-17T19:18:47.792Z,6.45
2022-08-17T19:21:22.299Z,6.43
2022-08-17T19:23:54.945Z,6.25
2022-08-17T19:26:54.369Z,6.05
2022-08-17T19:29:25.711Z,6.47
2022-08-17T19:31:55.255Z,5.68
2022-08-17T19:34:33.223Z,6.07
2022-08-17T19:37:09.318Z,6.05
2022-08-17T19:39:48.191Z,5.55
2022-08-17T19:42:31.742Z,5.78
2022-08-17T19:45:07.263Z,6.05
2022-08-17T19:47:54.903Z,5.50
2022-08-17T19:50:41.339Z,5.43
2022-08-17T19:53:21.972Z,5.82
2022-08-17T19:55:57.793Z,5.65
2022-08-17T19:58:42.437Z,5.68
2022-08-17T20:01:20.176Z,5.38
2022-08-17T20:03:56.730Z,5.88
2022-08-17T20:06:25.987Z,5.47
2022-08-17T20:09:02.394Z,5.43
2022-08-17T20:11:38.727Z,5.53
2022-08-17T20:14:12.954Z,5.60
2022-08-17T20:16:41.265Z,5.45
2022-08-17T20:19:18.019Z,5.72
2022-08-17T20:21:53.319Z,5.72
2022-08-17T20:24:26.170Z,5.40
2022-08-17T20:26:58.865Z,5.47
2022-08-17T20:29:40.340Z,5.68
2022-08-17T20:32:25.670Z,5.63
2022-08-17T20:35:06.923Z,5.80
2022-08-17T20:37:36.879Z,5.90
2022-08-17T20:40:33.897Z,5.57
2022-08-17T20:43:40.282Z,6.28
2022-08-17T20:46:20.896Z,5.88
2022-08-17T20:48:53.398Z,6.47
2022-08-17T20:51:29.755Z,6.00
2022-08-17T20:54:05.558Z,5.82
2022-08-17T20:56:56.421Z,6.05
2022-08-17T20:59:59.834Z,6.18
2022-08-17T21:02:33.300Z,6.43
2022-08-17T21:05:22.992Z,6.20
2022-08-17T21:07:57.958Z,5.97
2022-08-17T21:10:37.546Z,5.90
2022-08-17T21:13:38.837Z,6.60
2022-08-17T21:16:12.389Z,6.43
2022-08-17T21:18:51.766Z,6.20
2022-08-17T21:21:24.566Z,6.60
2022-08-17T21:24:10.117Z,6.20
2022-08-17T21:26:50.781Z,5.80
2022-08-17T21:29:31.779Z,6.38
2022-08-17T21:32:24.568Z,5.90
2022-08-17T21:35:12.292Z,6.03
2022-08-17T21:37:43.881Z,6.50
2022-08-17T21:40:21.611Z,6.30
2022-08-17T21:42:50.929Z,6.30
2022-08-17T21:45:23.251Z,6.50
2022-08-17T21:47:53.351Z,6.20
2022-08-17T21:50:23.051Z,6.53
2022-08-17T21:52:53.959Z,6.00
2022-08-17T21:55:28.213Z,6.47
2022-08-17T21:58:14.231Z,5.60
2022-08-17T22:00:45.059Z,5.72
2022-08-17T22:03:24.340Z,5.82
2022-08-17T22:05:55.125Z,5.80
2022-08-17T22:08:26.405Z,5.43
2022-08-17T22:11:01.948Z,5.38
2022-08-17T22:13:30.406Z,5.72
2022-08-17T22:16:15.490Z,5.40
2022-08-17T22:18:57.908Z,5.55
2022-08-17T22:21:28.111Z,5.15
2022-08-17T22:24:04.957Z,5.82
2022-08-17T22:26:52.172Z,6.10
2022-08-17T22:29:39.149Z,5.93
2022-08-17T22:32:07.760Z,6.47
2022-08-17T22:34:36.971Z,5.97
2022-08-17T22:37:27.556Z,5.80
2022-08-17T22:40:00.090Z,6.60
2022-08-17T22:42:29.041Z,6.68
2022-08-17T22:44:57.376Z,6.45
2022-08-17T22:47:32.900Z,6.90
2022-08-17T22:50:02.720Z,6.03
2022-08-17T22:52:33.522Z,6.82
2022-08-17T22:55:23.985Z,6.93
2022-08-17T22:58:11.882Z,6.43
2022-08-17T23:00:42.507Z,6.78
2022-08-17T23:03:16.179Z,6.03
2022-08-17T23:05:48.704Z,6.40
2022-08-17T23:08:21.281Z,5.80
2022-08-17T23:10:51.339Z,5.65
2022-08-17T23:13:21.394Z,4.72
2022-08-17T23:15:50.456Z,4.78
2022-08-17T23:18:19.069Z,4.70
2022-08-17T23:20:47.481Z,5.10
2022-08-17T23:23:21.775Z,5.15
2022-08-17T23:25:54.613Z,4.70
2022-08-17T23:28:25.979Z,4.53
2022-08-17T23:30:54.208Z,4.70
2022-08-17T23:33:31.039Z,4.40
2022-08-17T23:35:59.630Z,4.53
2022-08-17T23:38:28.731Z,4.63
2022-08-17T23:41:01.053Z,4.25
2022-08-17T23:43:31.456Z,4.43
2022-08-17T23:46:01.023Z,4.88
2022-08-17T23:48:36.951Z,4.43
2022-08-17T23:51:09.343Z,4.53
2022-08-17T23:53:38.198Z,4.75
2022-08-17T23:56:11.110Z,4.18
2022-08-17T23:58:40.263Z,4.50
